sensor_id;sensor_type;location;lat;lon;timestamp;temperature;humidity
24902;DHT22;31328;51.402;0.016;2022-12-18T00:01:18;0.70;99.90
24902;DHT22;31328;51.402;0.016;2022-12-18T00:03:44;0.70;99.90
24902;DHT22;31328;51.402;0.016;2022-12-18T00:06:11;0.70;99.90
24902;DHT22;31328;51.402;0.016;2022-12-18T00:08:38;0.70;99.90
24902;DHT22;31328;51.402;0.016;2022-12-18T00:11:06;0.70;99.90
24902;DHT22;31328;51.402;0.016;2022-12-18T00:13:32;0.70;99.90
24902;DHT22;31328;51.402;0.016;2022-12-18T00:16:03;0.70;99.90
24902;DHT22;31328;51.402;0.016;2022-12-18T00:18:30;0.70;99.90
24902;DHT22;31328;51.402;0.016;2022-12-18T00:21:02;0.70;99.90
24902;DHT22;31328;51.402;0.016;2022-12-18T00:23:29;0.70;99.90
24902;DHT22;31328;51.402;0.016;2022-12-18T00:26:04;0.70;99.90
24902;DHT22;31328;51.402;0.016;2022-12-18T00:28:31;0.60;99.90
24902;DHT22;31328;51.402;0.016;2022-12-18T00:31:06;0.60;99.90
24902;DHT22;31328;51.402;0.016;2022-12-18T00:33:34;0.60;99.90
24902;DHT22;31328;51.402;0.016;2022-12-18T00:36:01;0.60;99.90
24902;DHT22;31328;51.402;0.016;2022-12-18T00:38:28;0.60;99.90
24902;DHT22;31328;51.402;0.016;2022-12-18T00:40:55;0.50;99.90
24902;DHT22;31328;51.402;0.016;2022-12-18T00:43:21;0.50;99.90
24902;DHT22;31328;51.402;0.016;2022-12-18T00:45:47;0.50;99.90
24902;DHT22;31328;51.402;0.016;2022-12-18T00:48:14;0.50;99.90
24902;DHT22;31328;51.402;0.016;2022-12-18T00:50:40;0.50;99.90
24902;DHT22;31328;51.402;0.016;2022-12-18T00:53:06;0.50;99.90
24902;DHT22;31328;51.402;0.016;2022-12-18T00:55:40;0.50;99.90
24902;DHT22;31328;51.402;0.016;2022-12-18T00:58:07;0.50;99.90
24902;DHT22;31328;51.402;0.016;2022-12-18T01:00:35;0.40;99.90
24902;DHT22;31328;51.402;0.016;2022-12-18T01:03:02;0.40;99.90
24902;DHT22;31328;51.402;0.016;2022-12-18T01:05:28;0.40;99.90
24902;DHT22;31328;51.402;0.016;2022-12-18T01:07:55;0.40;99.90
24902;DHT22;31328;51.402;0.016;2022-12-18T01:10:22;0.40;99.90
24902;DHT22;31328;51.402;0.016;2022-12-18T01:12:49;0.40;99.90
24902;DHT22;31328;51.402;0.016;2022-12-18T01:15:18;0.40;99.90
24902;DHT22;31328;51.402;0.016;2022-12-18T01:17:45;0.40;99.90
24902;DHT22;31328;51.402;0.016;2022-12-18T01:20:12;0.40;99.90
24902;DHT22;31328;51.402;0.016;2022-12-18T01:22:39;0.40;99.90
24902;DHT22;31328;51.402;0.016;2022-12-18T01:25:07;0.40;99.90
24902;DHT22;31328;51.402;0.016;2022-12-18T01:27:34;0.40;99.90
24902;DHT22;31328;51.402;0.016;2022-12-18T01:30:00;0.40;99.90
24902;DHT22;31328;51.402;0.016;2022-12-18T01:32:30;0.40;99.90
24902;DHT22;31328;51.402;0.016;2022-12-18T01:34:56;0.40;99.90
24902;DHT22;31328;51.402;0.016;2022-12-18T01:37:23;0.40;99.90
24902;DHT22;31328;51.402;0.016;2022-12-18T01:39:49;0.40;99.90
24902;DHT22;31328;51.402;0.016;2022-12-18T01:42:16;0.40;99.90
24902;DHT22;31328;51.402;0.016;2022-12-18T01:47:55;0.40;99.90
24902;DHT22;31328;51.402;0.016;2022-12-18T01:50:25;0.40;99.90
24902;DHT22;31328;51.402;0.016;2022-12-18T01:53:06;0.40;99.90
24902;DHT22;31328;51.402;0.016;2022-12-18T01:55:53;0.40;99.90
24902;DHT22;31328;51.402;0.016;2022-12-18T02:01:10;0.40;99.90
24902;DHT22;31328;51.402;0.016;2022-12-18T02:03:36;0.40;99.90
24902;DHT22;31328;51.402;0.016;2022-12-18T02:06:29;0.40;99.90
24902;DHT22;31328;51.402;0.016;2022-12-18T02:14:40;0.40;99.90
24902;DHT22;31328;51.402;0.016;2022-12-18T02:17:18;0.30;99.90
24902;DHT22;31328;51.402;0.016;2022-12-18T02:27:51;0.30;99.90
24902;DHT22;31328;51.402;0.016;2022-12-18T02:30:20;0.30;99.90
24902;DHT22;31328;51.402;0.016;2022-12-18T02:32:53;0.30;99.90
24902;DHT22;31328;51.402;0.016;2022-12-18T02:35:23;0.30;99.90
24902;DHT22;31328;51.402;0.016;2022-12-18T02:37:54;0.30;99.90
24902;DHT22;31328;51.402;0.016;2022-12-18T02:40:22;0.30;99.90
24902;DHT22;31328;51.402;0.016;2022-12-18T02:42:50;0.20;99.90
24902;DHT22;31328;51.402;0.016;2022-12-18T02:45:18;0.20;99.90
24902;DHT22;31328;51.402;0.016;2022-12-18T02:47:48;0.20;99.90
24902;DHT22;31328;51.402;0.016;2022-12-18T02:50:35;0.20;99.90
24902;DHT22;31328;51.402;0.016;2022-12-18T02:53:34;0.20;99.90
24902;DHT22;31328;51.402;0.016;2022-12-18T02:56:13;0.20;99.90
24902;DHT22;31328;51.402;0.016;2022-12-18T02:59:07;0.30;99.90
24902;DHT22;31328;51.402;0.016;2022-12-18T03:01:58;0.30;99.90
24902;DHT22;31328;51.402;0.016;2022-12-18T03:04:38;0.30;99.90
24902;DHT22;31328;51.402;0.016;2022-12-18T03:07:09;0.30;99.90
24902;DHT22;31328;51.402;0.016;2022-12-18T03:09:41;0.30;99.90
24902;DHT22;31328;51.402;0.016;2022-12-18T03:12:30;0.30;99.90
24902;DHT22;31328;51.402;0.016;2022-12-18T03:15:17;0.30;99.90
24902;DHT22;31328;51.402;0.016;2022-12-18T03:17:56;0.30;99.90
24902;DHT22;31328;51.402;0.016;2022-12-18T03:20:29;0.30;99.90
24902;DHT22;31328;51.402;0.016;2022-12-18T03:23:04;0.40;99.90
24902;DHT22;31328;51.402;0.016;2022-12-18T03:25:33;0.30;99.90
24902;DHT22;31328;51.402;0.016;2022-12-18T03:28:02;0.40;99.90
24902;DHT22;31328;51.402;0.016;2022-12-18T03:30:34;0.40;99.90
24902;DHT22;31328;51.402;0.016;2022-12-18T03:33:19;0.40;99.90
24902;DHT22;31328;51.402;0.016;2022-12-18T03:35:50;0.50;99.90
24902;DHT22;31328;51.402;0.016;2022-12-18T03:38:18;0.50;99.90
24902;DHT22;31328;51.402;0.016;2022-12-18T03:44:29;0.50;99.90
24902;DHT22;31328;51.402;0.016;2022-12-18T03:47:19;0.60;99.90
24902;DHT22;31328;51.402;0.016;2022-12-18T03:53:12;0.60;99.90
24902;DHT22;31328;51.402;0.016;2022-12-18T03:55:45;0.60;99.90
24902;DHT22;31328;51.402;0.016;2022-12-18T03:58:15;0.70;99.90
24902;DHT22;31328;51.402;0.016;2022-12-18T04:01:09;0.70;99.90
24902;DHT22;31328;51.402;0.016;2022-12-18T04:03:40;0.70;99.90
24902;DHT22;31328;51.402;0.016;2022-12-18T04:06:07;0.70;99.90
24902;DHT22;31328;51.402;0.016;2022-12-18T04:08:35;0.70;99.90
24902;DHT22;31328;51.402;0.016;2022-12-18T04:11:05;0.70;99.90
24902;DHT22;31328;51.402;0.016;2022-12-18T04:13:35;0.80;99.90
24902;DHT22;31328;51.402;0.016;2022-12-18T04:16:05;0.70;99.90
24902;DHT22;31328;51.402;0.016;2022-12-18T04:18:32;0.80;99.90
24902;DHT22;31328;51.402;0.016;2022-12-18T04:21:00;0.80;99.90
24902;DHT22;31328;51.402;0.016;2022-12-18T04:23:27;0.80;99.90
24902;DHT22;31328;51.402;0.016;2022-12-18T04:25:57;0.80;99.90
24902;DHT22;31328;51.402;0.016;2022-12-18T04:28:39;0.80;99.90
24902;DHT22;31328;51.402;0.016;2022-12-18T04:31:06;0.90;99.90
24902;DHT22;31328;51.402;0.016;2022-12-18T04:33:32;0.90;99.90
24902;DHT22;31328;51.402;0.016;2022-12-18T04:35:59;0.90;99.90
24902;DHT22;31328;51.402;0.016;2022-12-18T04:38:26;0.90;99.90
24902;DHT22;31328;51.402;0.016;2022-12-18T04:41:01;0.90;99.90
24902;DHT22;31328;51.402;0.016;2022-12-18T04:43:28;0.90;99.90
24902;DHT22;31328;51.402;0.016;2022-12-18T04:46:02;0.90;99.90
24902;DHT22;31328;51.402;0.016;2022-12-18T04:48:28;0.90;99.90
24902;DHT22;31328;51.402;0.016;2022-12-18T04:50:54;0.90;99.90
24902;DHT22;31328;51.402;0.016;2022-12-18T04:53:20;0.90;99.90
24902;DHT22;31328;51.402;0.016;2022-12-18T04:55:47;0.90;99.90
24902;DHT22;31328;51.402;0.016;2022-12-18T04:58:13;0.90;99.90
24902;DHT22;31328;51.402;0.016;2022-12-18T05:00:39;0.90;99.90
24902;DHT22;31328;51.402;0.016;2022-12-18T05:03:06;1.00;99.90
24902;DHT22;31328;51.402;0.016;2022-12-18T05:05:34;1.00;99.90
24902;DHT22;31328;51.402;0.016;2022-12-18T05:08:01;1.00;99.90
24902;DHT22;31328;51.402;0.016;2022-12-18T05:10:27;1.10;99.90
24902;DHT22;31328;51.402;0.016;2022-12-18T05:12:53;1.20;99.90
24902;DHT22;31328;51.402;0.016;2022-12-18T05:15:30;1.20;99.90
24902;DHT22;31328;51.402;0.016;2022-12-18T05:17:57;1.20;99.90
24902;DHT22;31328;51.402;0.016;2022-12-18T05:20:24;1.30;99.90
24902;DHT22;31328;51.402;0.016;2022-12-18T05:22:51;1.30;99.90
24902;DHT22;31328;51.402;0.016;2022-12-18T05:25:18;1.30;99.90
24902;DHT22;31328;51.402;0.016;2022-12-18T05:27:45;1.40;99.90
24902;DHT22;31328;51.402;0.016;2022-12-18T05:30:11;1.40;99.90
24902;DHT22;31328;51.402;0.016;2022-12-18T05:32:38;1.40;99.90
24902;DHT22;31328;51.402;0.016;2022-12-18T05:35:06;1.50;99.90
24902;DHT22;31328;51.402;0.016;2022-12-18T05:37:33;1.50;99.90
24902;DHT22;31328;51.402;0.016;2022-12-18T05:40:00;1.50;99.90
24902;DHT22;31328;51.402;0.016;2022-12-18T05:42:26;1.50;99.90
24902;DHT22;31328;51.402;0.016;2022-12-18T05:44:52;1.50;99.90
24902;DHT22;31328;51.402;0.016;2022-12-18T05:47:18;1.60;99.90
24902;DHT22;31328;51.402;0.016;2022-12-18T05:49:45;1.60;99.90
24902;DHT22;31328;51.402;0.016;2022-12-18T05:52:11;1.60;99.90
24902;DHT22;31328;51.402;0.016;2022-12-18T05:54:37;1.70;99.90
24902;DHT22;31328;51.402;0.016;2022-12-18T05:57:04;1.70;99.90
24902;DHT22;31328;51.402;0.016;2022-12-18T05:59:31;1.70;99.90
24902;DHT22;31328;51.402;0.016;2022-12-18T06:01:57;1.70;99.90
24902;DHT22;31328;51.402;0.016;2022-12-18T06:04:23;1.80;99.90
24902;DHT22;31328;51.402;0.016;2022-12-18T06:06:50;1.80;99.90
24902;DHT22;31328;51.402;0.016;2022-12-18T06:09:16;1.80;99.90
24902;DHT22;31328;51.402;0.016;2022-12-18T06:11:42;1.80;99.90
24902;DHT22;31328;51.402;0.016;2022-12-18T06:14:09;1.90;99.90
24902;DHT22;31328;51.402;0.016;2022-12-18T06:16:36;1.90;99.90
24902;DHT22;31328;51.402;0.016;2022-12-18T06:19:04;1.90;99.90
24902;DHT22;31328;51.402;0.016;2022-12-18T06:21:31;1.90;99.90
24902;DHT22;31328;51.402;0.016;2022-12-18T06:23:58;2.00;99.90
24902;DHT22;31328;51.402;0.016;2022-12-18T06:26:25;2.00;99.90
24902;DHT22;31328;51.402;0.016;2022-12-18T06:28:51;2.00;99.90
24902;DHT22;31328;51.402;0.016;2022-12-18T06:31:18;2.00;99.90
24902;DHT22;31328;51.402;0.016;2022-12-18T06:33:44;2.00;99.90
24902;DHT22;31328;51.402;0.016;2022-12-18T06:36:12;2.10;99.90
24902;DHT22;31328;51.402;0.016;2022-12-18T06:38:41;2.10;99.90
24902;DHT22;31328;51.402;0.016;2022-12-18T06:41:09;2.10;99.90
24902;DHT22;31328;51.402;0.016;2022-12-18T06:43:36;2.10;99.90
24902;DHT22;31328;51.402;0.016;2022-12-18T06:46:03;2.10;99.90
24902;DHT22;31328;51.402;0.016;2022-12-18T06:48:29;2.10;99.90
24902;DHT22;31328;51.402;0.016;2022-12-18T06:50:56;2.10;99.90
24902;DHT22;31328;51.402;0.016;2022-12-18T06:53:22;2.10;99.90
24902;DHT22;31328;51.402;0.016;2022-12-18T06:55:49;2.10;99.90
24902;DHT22;31328;51.402;0.016;2022-12-18T06:58:15;2.20;99.90
24902;DHT22;31328;51.402;0.016;2022-12-18T07:00:42;2.20;99.90
24902;DHT22;31328;51.402;0.016;2022-12-18T07:03:08;2.20;99.90
24902;DHT22;31328;51.402;0.016;2022-12-18T07:05:39;2.20;99.90
24902;DHT22;31328;51.402;0.016;2022-12-18T07:08:06;2.20;99.90
24902;DHT22;31328;51.402;0.016;2022-12-18T07:10:33;2.20;99.90
24902;DHT22;31328;51.402;0.016;2022-12-18T07:12:59;2.20;99.90
24902;DHT22;31328;51.402;0.016;2022-12-18T07:15:25;2.20;99.90
24902;DHT22;31328;51.402;0.016;2022-12-18T07:17:51;2.20;99.90
24902;DHT22;31328;51.402;0.016;2022-12-18T07:20:18;2.30;99.90
24902;DHT22;31328;51.402;0.016;2022-12-18T07:22:44;2.30;99.90
24902;DHT22;31328;51.402;0.016;2022-12-18T07:25:10;2.30;99.90
24902;DHT22;31328;51.402;0.016;2022-12-18T07:27:37;2.30;99.90
24902;DHT22;31328;51.402;0.016;2022-12-18T07:30:03;2.30;99.90
24902;DHT22;31328;51.402;0.016;2022-12-18T07:32:30;2.30;99.90
24902;DHT22;31328;51.402;0.016;2022-12-18T07:34:56;2.40;99.90
24902;DHT22;31328;51.402;0.016;2022-12-18T07:37:23;2.30;99.90
24902;DHT22;31328;51.402;0.016;2022-12-18T07:39:49;2.30;99.90
24902;DHT22;31328;51.402;0.016;2022-12-18T07:42:15;2.40;99.90
24902;DHT22;31328;51.402;0.016;2022-12-18T07:45:00;2.40;99.90
24902;DHT22;31328;51.402;0.016;2022-12-18T07:47:28;2.40;99.90
24902;DHT22;31328;51.402;0.016;2022-12-18T07:49:57;2.40;99.90
24902;DHT22;31328;51.402;0.016;2022-12-18T07:52:24;2.40;99.90
24902;DHT22;31328;51.402;0.016;2022-12-18T07:54:50;2.40;99.90
24902;DHT22;31328;51.402;0.016;2022-12-18T07:57:17;2.40;99.90
24902;DHT22;31328;51.402;0.016;2022-12-18T07:59:43;2.40;99.90
24902;DHT22;31328;51.402;0.016;2022-12-18T08:02:10;2.40;99.90
24902;DHT22;31328;51.402;0.016;2022-12-18T08:04:36;2.40;99.90
24902;DHT22;31328;51.402;0.016;2022-12-18T08:07:02;2.40;99.90
24902;DHT22;31328;51.402;0.016;2022-12-18T08:09:29;2.40;99.90
24902;DHT22;31328;51.402;0.016;2022-12-18T08:11:55;2.40;99.90
24902;DHT22;31328;51.402;0.016;2022-12-18T08:14:21;2.40;99.90
24902;DHT22;31328;51.402;0.016;2022-12-18T08:16:47;2.40;99.90
24902;DHT22;31328;51.402;0.016;2022-12-18T08:19:14;2.40;99.90
24902;DHT22;31328;51.402;0.016;2022-12-18T08:21:40;2.40;99.90
24902;DHT22;31328;51.402;0.016;2022-12-18T08:24:06;2.40;99.90
24902;DHT22;31328;51.402;0.016;2022-12-18T08:26:34;2.40;99.90
24902;DHT22;31328;51.402;0.016;2022-12-18T08:29:01;2.40;99.90
24902;DHT22;31328;51.402;0.016;2022-12-18T08:31:29;2.40;99.90
24902;DHT22;31328;51.402;0.016;2022-12-18T08:33:56;2.40;99.90
24902;DHT22;31328;51.402;0.016;2022-12-18T08:36:23;2.40;99.90
24902;DHT22;31328;51.402;0.016;2022-12-18T08:38:50;2.50;99.90
24902;DHT22;31328;51.402;0.016;2022-12-18T08:41:17;2.50;99.90
24902;DHT22;31328;51.402;0.016;2022-12-18T08:43:44;2.50;99.90
24902;DHT22;31328;51.402;0.016;2022-12-18T08:46:33;2.50;99.90
24902;DHT22;31328;51.402;0.016;2022-12-18T08:49:00;2.50;99.90
24902;DHT22;31328;51.402;0.016;2022-12-18T08:51:26;2.50;99.90
24902;DHT22;31328;51.402;0.016;2022-12-18T08:53:52;2.60;99.90
24902;DHT22;31328;51.402;0.016;2022-12-18T08:56:19;2.60;99.90
24902;DHT22;31328;51.402;0.016;2022-12-18T08:58:45;2.60;99.90
24902;DHT22;31328;51.402;0.016;2022-12-18T09:01:12;2.70;99.90
24902;DHT22;31328;51.402;0.016;2022-12-18T09:03:39;2.70;99.90
24902;DHT22;31328;51.402;0.016;2022-12-18T09:06:06;2.70;99.90
24902;DHT22;31328;51.402;0.016;2022-12-18T09:08:32;2.80;99.90
24902;DHT22;31328;51.402;0.016;2022-12-18T09:11:03;2.70;99.90
24902;DHT22;31328;51.402;0.016;2022-12-18T09:13:29;2.80;99.90
24902;DHT22;31328;51.402;0.016;2022-12-18T09:15:56;2.80;99.90
24902;DHT22;31328;51.402;0.016;2022-12-18T09:18:23;2.80;99.90
24902;DHT22;31328;51.402;0.016;2022-12-18T09:20:50;2.80;99.90
24902;DHT22;31328;51.402;0.016;2022-12-18T09:23:18;2.90;99.90
24902;DHT22;31328;51.402;0.016;2022-12-18T09:25:45;2.80;99.90
24902;DHT22;31328;51.402;0.016;2022-12-18T09:28:16;2.90;99.90
24902;DHT22;31328;51.402;0.016;2022-12-18T09:30:45;2.90;99.90
24902;DHT22;31328;51.402;0.016;2022-12-18T09:33:12;2.90;99.90
24902;DHT22;31328;51.402;0.016;2022-12-18T09:35:39;2.90;99.90
24902;DHT22;31328;51.402;0.016;2022-12-18T09:38:07;2.90;99.90
24902;DHT22;31328;51.402;0.016;2022-12-18T09:40:39;2.90;99.90
24902;DHT22;31328;51.402;0.016;2022-12-18T09:43:29;3.00;99.90
24902;DHT22;31328;51.402;0.016;2022-12-18T09:46:03;3.00;99.90
24902;DHT22;31328;51.402;0.016;2022-12-18T09:48:34;3.00;99.90
24902;DHT22;31328;51.402;0.016;2022-12-18T09:51:06;3.00;99.90
24902;DHT22;31328;51.402;0.016;2022-12-18T09:53:38;3.00;99.90
24902;DHT22;31328;51.402;0.016;2022-12-18T09:56:05;3.10;99.90
24902;DHT22;31328;51.402;0.016;2022-12-18T09:58:41;3.10;99.90
24902;DHT22;31328;51.402;0.016;2022-12-18T10:01:22;3.10;99.90
24902;DHT22;31328;51.402;0.016;2022-12-18T10:03:49;3.10;99.90
24902;DHT22;31328;51.402;0.016;2022-12-18T10:06:24;3.10;99.90
24902;DHT22;31328;51.402;0.016;2022-12-18T10:11:53;3.20;99.90
24902;DHT22;31328;51.402;0.016;2022-12-18T10:17:14;3.30;99.90
24902;DHT22;31328;51.402;0.016;2022-12-18T10:19:49;3.30;99.90
24902;DHT22;31328;51.402;0.016;2022-12-18T10:25:25;3.30;99.90
24902;DHT22;31328;51.402;0.016;2022-12-18T10:27:56;3.40;99.90
24902;DHT22;31328;51.402;0.016;2022-12-18T10:30:24;3.40;99.90
24902;DHT22;31328;51.402;0.016;2022-12-18T10:32:51;3.40;99.90
24902;DHT22;31328;51.402;0.016;2022-12-18T10:35:21;3.40;99.90
24902;DHT22;31328;51.402;0.016;2022-12-18T10:41:06;3.50;99.90
24902;DHT22;31328;51.402;0.016;2022-12-18T10:43:38;3.50;99.90
24902;DHT22;31328;51.402;0.016;2022-12-18T10:48:39;3.60;99.90
24902;DHT22;31328;51.402;0.016;2022-12-18T10:51:07;3.60;99.90
24902;DHT22;31328;51.402;0.016;2022-12-18T10:53:36;3.70;99.90
24902;DHT22;31328;51.402;0.016;2022-12-18T10:56:04;3.70;99.90
24902;DHT22;31328;51.402;0.016;2022-12-18T10:58:33;3.70;99.90
24902;DHT22;31328;51.402;0.016;2022-12-18T11:01:17;3.70;99.90
24902;DHT22;31328;51.402;0.016;2022-12-18T11:06:19;3.80;99.90
24902;DHT22;31328;51.402;0.016;2022-12-18T11:11:28;3.90;99.90
24902;DHT22;31328;51.402;0.016;2022-12-18T11:14:05;3.90;99.90
24902;DHT22;31328;51.402;0.016;2022-12-18T11:16:51;3.90;99.90
24902;DHT22;31328;51.402;0.016;2022-12-18T11:19:42;4.00;99.90
24902;DHT22;31328;51.402;0.016;2022-12-18T11:22:27;4.00;99.90
24902;DHT22;31328;51.402;0.016;2022-12-18T11:25:00;4.10;99.90
24902;DHT22;31328;51.402;0.016;2022-12-18T11:27:28;4.10;99.90
24902;DHT22;31328;51.402;0.016;2022-12-18T11:30:09;4.10;99.90
24902;DHT22;31328;51.402;0.016;2022-12-18T11:32:43;4.20;99.90
24902;DHT22;31328;51.402;0.016;2022-12-18T11:35:17;4.20;99.90
24902;DHT22;31328;51.402;0.016;2022-12-18T11:37:54;4.30;99.90
24902;DHT22;31328;51.402;0.016;2022-12-18T11:40:37;4.30;99.90
24902;DHT22;31328;51.402;0.016;2022-12-18T11:43:13;4.30;99.90
24902;DHT22;31328;51.402;0.016;2022-12-18T11:45:47;4.30;99.90
24902;DHT22;31328;51.402;0.016;2022-12-18T11:50:55;4.30;99.90
24902;DHT22;31328;51.402;0.016;2022-12-18T11:53:22;4.40;99.90
24902;DHT22;31328;51.402;0.016;2022-12-18T11:56:12;4.40;99.90
24902;DHT22;31328;51.402;0.016;2022-12-18T11:58:57;4.40;99.90
24902;DHT22;31328;51.402;0.016;2022-12-18T12:01:44;4.40;99.90
24902;DHT22;31328;51.402;0.016;2022-12-18T12:18:40;4.40;99.90
24902;DHT22;31328;51.402;0.016;2022-12-18T12:37:34;4.40;99.90
24902;DHT22;31328;51.402;0.016;2022-12-18T12:40:04;4.40;99.90
24902;DHT22;31328;51.402;0.016;2022-12-18T12:42:54;4.40;99.90
24902;DHT22;31328;51.402;0.016;2022-12-18T12:46:04;4.40;99.90
24902;DHT22;31328;51.402;0.016;2022-12-18T12:48:39;4.40;99.90
24902;DHT22;31328;51.402;0.016;2022-12-18T12:51:38;4.40;99.90
24902;DHT22;31328;51.402;0.016;2022-12-18T12:54:21;4.40;99.90
24902;DHT22;31328;51.402;0.016;2022-12-18T13:00:10;4.40;99.90
24902;DHT22;31328;51.402;0.016;2022-12-18T13:07:51;4.40;99.90
24902;DHT22;31328;51.402;0.016;2022-12-18T13:12:57;4.40;99.90
24902;DHT22;31328;51.402;0.016;2022-12-18T13:16:18;4.40;99.90
24902;DHT22;31328;51.402;0.016;2022-12-18T13:18:20;4.40;99.90
24902;DHT22;31328;51.402;0.016;2022-12-18T13:20:47;4.40;99.90
24902;DHT22;31328;51.402;0.016;2022-12-18T13:34:23;4.40;99.90
24902;DHT22;31328;51.402;0.016;2022-12-18T13:36:51;4.30;99.90
24902;DHT22;31328;51.402;0.016;2022-12-18T13:41:47;4.30;99.90
24902;DHT22;31328;51.402;0.016;2022-12-18T13:46:50;4.20;99.90
24902;DHT22;31328;51.402;0.016;2022-12-18T13:49:24;4.20;99.90
24902;DHT22;31328;51.402;0.016;2022-12-18T13:51:53;4.10;99.90
24902;DHT22;31328;51.402;0.016;2022-12-18T13:54:36;4.10;99.90
24902;DHT22;31328;51.402;0.016;2022-12-18T13:57:04;4.00;99.90
24902;DHT22;31328;51.402;0.016;2022-12-18T13:59:37;4.00;99.90
24902;DHT22;31328;51.402;0.016;2022-12-18T14:02:14;3.90;99.90
24902;DHT22;31328;51.402;0.016;2022-12-18T14:04:40;3.90;99.90
24902;DHT22;31328;51.402;0.016;2022-12-18T14:07:26;3.90;99.90
24902;DHT22;31328;51.402;0.016;2022-12-18T14:10:01;3.90;99.90
24902;DHT22;31328;51.402;0.016;2022-12-18T14:12:33;3.90;99.90
24902;DHT22;31328;51.402;0.016;2022-12-18T14:18:02;3.80;99.90
24902;DHT22;31328;51.402;0.016;2022-12-18T14:20:32;3.80;99.90
24902;DHT22;31328;51.402;0.016;2022-12-18T14:23:00;3.80;99.90
24902;DHT22;31328;51.402;0.016;2022-12-18T14:25:28;3.80;99.90
24902;DHT22;31328;51.402;0.016;2022-12-18T14:30:41;3.80;99.90
24902;DHT22;31328;51.402;0.016;2022-12-18T14:35:37;3.80;99.90
24902;DHT22;31328;51.402;0.016;2022-12-18T14:38:18;3.80;99.90
24902;DHT22;31328;51.402;0.016;2022-12-18T14:40:46;3.80;99.90
24902;DHT22;31328;51.402;0.016;2022-12-18T14:43:12;3.80;99.90
24902;DHT22;31328;51.402;0.016;2022-12-18T14:45:43;3.80;99.90
24902;DHT22;31328;51.402;0.016;2022-12-18T14:50:55;3.80;99.90
24902;DHT22;31328;51.402;0.016;2022-12-18T14:53:33;3.80;99.90
24902;DHT22;31328;51.402;0.016;2022-12-18T14:56:01;3.80;99.90
24902;DHT22;31328;51.402;0.016;2022-12-18T14:58:27;3.80;99.90
24902;DHT22;31328;51.402;0.016;2022-12-18T15:00:54;3.80;99.90
24902;DHT22;31328;51.402;0.016;2022-12-18T15:03:21;3.80;99.90
24902;DHT22;31328;51.402;0.016;2022-12-18T15:05:47;3.90;99.90
24902;DHT22;31328;51.402;0.016;2022-12-18T15:08:31;3.90;99.90
24902;DHT22;31328;51.402;0.016;2022-12-18T15:11:00;3.90;99.90
24902;DHT22;31328;51.402;0.016;2022-12-18T15:13:26;3.90;99.90
24902;DHT22;31328;51.402;0.016;2022-12-18T15:15:55;3.90;99.90
24902;DHT22;31328;51.402;0.016;2022-12-18T15:18:34;3.90;99.90
24902;DHT22;31328;51.402;0.016;2022-12-18T15:21:09;3.90;99.90
24902;DHT22;31328;51.402;0.016;2022-12-18T15:26:12;4.00;99.90
24902;DHT22;31328;51.402;0.016;2022-12-18T15:36:25;4.00;99.90
24902;DHT22;31328;51.402;0.016;2022-12-18T15:38:56;4.00;99.90
24902;DHT22;31328;51.402;0.016;2022-12-18T15:41:26;4.00;99.90
24902;DHT22;31328;51.402;0.016;2022-12-18T15:43:53;4.00;99.90
24902;DHT22;31328;51.402;0.016;2022-12-18T15:46:24;4.10;99.90
24902;DHT22;31328;51.402;0.016;2022-12-18T15:48:53;4.10;99.90
24902;DHT22;31328;51.402;0.016;2022-12-18T15:51:35;4.10;99.90
24902;DHT22;31328;51.402;0.016;2022-12-18T15:54:04;4.10;99.90
24902;DHT22;31328;51.402;0.016;2022-12-18T15:56:32;4.10;99.90
24902;DHT22;31328;51.402;0.016;2022-12-18T15:59:19;4.20;99.90
24902;DHT22;31328;51.402;0.016;2022-12-18T16:01:47;4.20;99.90
24902;DHT22;31328;51.402;0.016;2022-12-18T16:04:15;4.20;99.90
24902;DHT22;31328;51.402;0.016;2022-12-18T16:06:43;4.20;99.90
24902;DHT22;31328;51.402;0.016;2022-12-18T16:09:09;4.30;99.90
24902;DHT22;31328;51.402;0.016;2022-12-18T16:11:36;4.30;99.90
24902;DHT22;31328;51.402;0.016;2022-12-18T16:14:20;4.30;99.90
24902;DHT22;31328;51.402;0.016;2022-12-18T16:16:48;4.30;99.90
24902;DHT22;31328;51.402;0.016;2022-12-18T16:19:15;4.30;99.90
24902;DHT22;31328;51.402;0.016;2022-12-18T16:21:42;4.40;99.90
24902;DHT22;31328;51.402;0.016;2022-12-18T16:24:15;4.40;99.90
24902;DHT22;31328;51.402;0.016;2022-12-18T16:26:43;4.50;99.90
24902;DHT22;31328;51.402;0.016;2022-12-18T16:29:10;4.50;99.90
24902;DHT22;31328;51.402;0.016;2022-12-18T16:31:36;4.50;99.90
24902;DHT22;31328;51.402;0.016;2022-12-18T16:36:49;4.60;99.90
24902;DHT22;31328;51.402;0.016;2022-12-18T16:39:16;4.60;99.90
24902;DHT22;31328;51.402;0.016;2022-12-18T16:41:43;4.60;99.90
24902;DHT22;31328;51.402;0.016;2022-12-18T16:44:09;4.70;99.90
24902;DHT22;31328;51.402;0.016;2022-12-18T16:46:37;4.70;99.90
24902;DHT22;31328;51.402;0.016;2022-12-18T16:49:03;4.70;99.90
24902;DHT22;31328;51.402;0.016;2022-12-18T16:51:30;4.70;99.90
24902;DHT22;31328;51.402;0.016;2022-12-18T16:53:59;4.80;99.90
24902;DHT22;31328;51.402;0.016;2022-12-18T16:56:25;4.80;99.90
24902;DHT22;31328;51.402;0.016;2022-12-18T16:58:53;4.80;99.90
24902;DHT22;31328;51.402;0.016;2022-12-18T17:01:20;4.90;99.90
24902;DHT22;31328;51.402;0.016;2022-12-18T17:03:53;4.90;99.90
24902;DHT22;31328;51.402;0.016;2022-12-18T17:06:24;4.90;99.90
24902;DHT22;31328;51.402;0.016;2022-12-18T17:08:59;4.90;99.90
24902;DHT22;31328;51.402;0.016;2022-12-18T17:11:27;5.00;99.90
24902;DHT22;31328;51.402;0.016;2022-12-18T17:13:54;5.00;99.90
24902;DHT22;31328;51.402;0.016;2022-12-18T17:16:21;5.00;99.90
24902;DHT22;31328;51.402;0.016;2022-12-18T17:18:48;5.10;99.90
24902;DHT22;31328;51.402;0.016;2022-12-18T17:21:15;5.10;99.90
24902;DHT22;31328;51.402;0.016;2022-12-18T17:23:42;5.20;99.90
24902;DHT22;31328;51.402;0.016;2022-12-18T17:26:09;5.20;99.90
24902;DHT22;31328;51.402;0.016;2022-12-18T17:28:38;5.20;99.90
24902;DHT22;31328;51.402;0.016;2022-12-18T17:31:21;5.30;99.90
24902;DHT22;31328;51.402;0.016;2022-12-18T17:33:47;5.30;99.90
24902;DHT22;31328;51.402;0.016;2022-12-18T17:36:15;5.40;99.90
24902;DHT22;31328;51.402;0.016;2022-12-18T17:38:42;5.40;99.90
24902;DHT22;31328;51.402;0.016;2022-12-18T17:41:10;5.40;99.90
24902;DHT22;31328;51.402;0.016;2022-12-18T17:43:37;5.40;99.90
24902;DHT22;31328;51.402;0.016;2022-12-18T17:46:13;5.50;99.90
24902;DHT22;31328;51.402;0.016;2022-12-18T17:48:40;5.50;99.90
24902;DHT22;31328;51.402;0.016;2022-12-18T17:51:08;5.50;99.90
24902;DHT22;31328;51.402;0.016;2022-12-18T17:53:35;5.60;99.90
24902;DHT22;31328;51.402;0.016;2022-12-18T17:56:01;5.60;99.90
24902;DHT22;31328;51.402;0.016;2022-12-18T17:58:31;5.60;99.90
24902;DHT22;31328;51.402;0.016;2022-12-18T18:00:58;5.60;99.90
24902;DHT22;31328;51.402;0.016;2022-12-18T18:03:25;5.60;99.90
24902;DHT22;31328;51.402;0.016;2022-12-18T18:05:55;5.60;99.90
24902;DHT22;31328;51.402;0.016;2022-12-18T18:08:23;5.70;99.90
24902;DHT22;31328;51.402;0.016;2022-12-18T18:10:49;5.70;99.90
24902;DHT22;31328;51.402;0.016;2022-12-18T18:13:25;5.70;99.90
24902;DHT22;31328;51.402;0.016;2022-12-18T18:16:11;5.70;99.90